sensor_id;sensor_type;location;lat;lon;timestamp;P1;durP1;ratioP1;P2;durP2;ratioP2
1759;SDS011;877;46.266;20.062;2023-03-23T00:02:24;43.07;;;20.80;;
1759;SDS011;877;46.266;20.062;2023-03-23T00:07:35;37.17;;;19.87;;
1759;SDS011;877;46.266;20.062;2023-03-23T00:10:06;30.63;;;18.47;;
1759;SDS011;877;46.266;20.062;2023-03-23T00:12:33;34.27;;;19.23;;
1759;SDS011;877;46.266;20.062;2023-03-23T00:15:04;30.83;;;18.93;;
1759;SDS011;877;46.266;20.062;2023-03-23T00:17:44;37.33;;;20.40;;
1759;SDS011;877;46.266;20.062;2023-03-23T00:20:17;33.93;;;19.27;;
1759;SDS011;877;46.266;20.062;2023-03-23T00:22:55;31.70;;;19.80;;
1759;SDS011;877;46.266;20.062;2023-03-23T00:25:25;27.27;;;18.30;;
1759;SDS011;877;46.266;20.062;2023-03-23T00:27:52;32.53;;;19.37;;
1759;SDS011;877;46.266;20.062;2023-03-23T00:30:21;38.67;;;22.70;;
1759;SDS011;877;46.266;20.062;2023-03-23T00:32:55;37.87;;;23.47;;
1759;SDS011;877;46.266;20.062;2023-03-23T00:35:24;34.70;;;22.33;;
1759;SDS011;877;46.266;20.062;2023-03-23T00:37:50;38.80;;;22.10;;
1759;SDS011;877;46.266;20.062;2023-03-23T00:48:46;41.07;;;23.57;;
1759;SDS011;877;46.266;20.062;2023-03-23T00:54:01;33.70;;;21.63;;
1759;SDS011;877;46.266;20.062;2023-03-23T00:56:33;35.00;;;23.03;;
1759;SDS011;877;46.266;20.062;2023-03-23T01:01:49;36.10;;;22.03;;
1759;SDS011;877;46.266;20.062;2023-03-23T01:04:22;33.17;;;20.40;;
1759;SDS011;877;46.266;20.062;2023-03-23T01:06:49;33.93;;;20.10;;
1759;SDS011;877;46.266;20.062;2023-03-23T01:09:32;33.30;;;20.40;;
1759;SDS011;877;46.266;20.062;2023-03-23T01:12:04;31.13;;;20.03;;
1759;SDS011;877;46.266;20.062;2023-03-23T01:14:44;28.77;;;19.47;;
1759;SDS011;877;46.266;20.062;2023-03-23T01:17:14;33.67;;;19.87;;
1759;SDS011;877;46.266;20.062;2023-03-23T01:19:42;35.80;;;21.47;;
1759;SDS011;877;46.266;20.062;2023-03-23T01:22:13;34.23;;;21.30;;
1759;SDS011;877;46.266;20.062;2023-03-23T01:27:34;30.23;;;20.47;;
1759;SDS011;877;46.266;20.062;2023-03-23T01:30:08;30.00;;;19.20;;
1759;SDS011;877;46.266;20.062;2023-03-23T01:35:18;33.53;;;23.23;;
1759;SDS011;877;46.266;20.062;2023-03-23T01:37:49;42.87;;;23.43;;
1759;SDS011;877;46.266;20.062;2023-03-23T01:40:23;42.87;;;23.83;;
1759;SDS011;877;46.266;20.062;2023-03-23T01:42:50;33.87;;;21.63;;
1759;SDS011;877;46.266;20.062;2023-03-23T01:47:43;38.50;;;23.53;;
1759;SDS011;877;46.266;20.062;2023-03-23T01:52:39;30.40;;;20.40;;
1759;SDS011;877;46.266;20.062;2023-03-23T01:55:23;31.02;;;19.92;;
1759;SDS011;877;46.266;20.062;2023-03-23T02:00:30;33.33;;;20.70;;
1759;SDS011;877;46.266;20.062;2023-03-23T02:02:58;27.77;;;18.90;;
1759;SDS011;877;46.266;20.062;2023-03-23T02:05:33;32.33;;;19.90;;
1759;SDS011;877;46.266;20.062;2023-03-23T02:08:07;30.17;;;17.73;;
1759;SDS011;877;46.266;20.062;2023-03-23T02:10:35;30.80;;;19.10;;
1759;SDS011;877;46.266;20.062;2023-03-23T02:13:08;30.73;;;18.60;;
1759;SDS011;877;46.266;20.062;2023-03-23T02:34:52;25.40;;;15.70;;
1759;SDS011;877;46.266;20.062;2023-03-23T02:37:30;26.98;;;16.48;;
1759;SDS011;877;46.266;20.062;2023-03-23T02:40:04;22.10;;;15.90;;
1759;SDS011;877;46.266;20.062;2023-03-23T02:50:51;27.38;;;17.00;;
1759;SDS011;877;46.266;20.062;2023-03-23T02:53:23;27.42;;;17.25;;
1759;SDS011;877;46.266;20.062;2023-03-23T02:55:52;25.60;;;17.45;;
1759;SDS011;877;46.266;20.062;2023-03-23T02:58:22;27.70;;;17.27;;
1759;SDS011;877;46.266;20.062;2023-03-23T03:00:54;28.20;;;17.95;;
1759;SDS011;877;46.266;20.062;2023-03-23T03:03:22;29.85;;;16.92;;
1759;SDS011;877;46.266;20.062;2023-03-23T03:08:51;26.83;;;16.88;;
1759;SDS011;877;46.266;20.062;2023-03-23T03:11:26;28.37;;;17.67;;
1759;SDS011;877;46.266;20.062;2023-03-23T03:14:02;33.27;;;19.73;;
1759;SDS011;877;46.266;20.062;2023-03-23T03:22:03;31.80;;;21.25;;
1759;SDS011;877;46.266;20.062;2023-03-23T03:24:35;35.47;;;22.45;;
1759;SDS011;877;46.266;20.062;2023-03-23T03:27:05;43.03;;;23.75;;
1759;SDS011;877;46.266;20.062;2023-03-23T03:32:29;37.58;;;21.92;;
1759;SDS011;877;46.266;20.062;2023-03-23T03:35:04;34.13;;;21.07;;
1759;SDS011;877;46.266;20.062;2023-03-23T03:37:41;35.92;;;22.20;;
1759;SDS011;877;46.266;20.062;2023-03-23T03:40:09;36.93;;;21.80;;
1759;SDS011;877;46.266;20.062;2023-03-23T03:42:40;42.75;;;21.60;;
1759;SDS011;877;46.266;20.062;2023-03-23T03:45:08;33.85;;;20.25;;
1759;SDS011;877;46.266;20.062;2023-03-23T03:47:35;34.50;;;20.92;;
1759;SDS011;877;46.266;20.062;2023-03-23T03:50:03;31.05;;;20.05;;
1759;SDS011;877;46.266;20.062;2023-03-23T03:52:30;33.50;;;21.70;;
1759;SDS011;877;46.266;20.062;2023-03-23T03:57:46;34.45;;;19.55;;
1759;SDS011;877;46.266;20.062;2023-03-23T04:05:44;35.00;;;20.05;;
1759;SDS011;877;46.266;20.062;2023-03-23T04:08:23;31.13;;;19.38;;
1759;SDS011;877;46.266;20.062;2023-03-23T04:11:02;29.45;;;19.23;;
1759;SDS011;877;46.266;20.062;2023-03-23T04:13:34;31.48;;;18.85;;
1759;SDS011;877;46.266;20.062;2023-03-23T04:16:00;31.42;;;19.98;;
1759;SDS011;877;46.266;20.062;2023-03-23T04:18:35;32.60;;;19.25;;
1759;SDS011;877;46.266;20.062;2023-03-23T04:21:01;26.77;;;18.30;;
1759;SDS011;877;46.266;20.062;2023-03-23T04:23:29;30.77;;;17.73;;
1759;SDS011;877;46.266;20.062;2023-03-23T04:26:04;25.23;;;17.20;;
1759;SDS011;877;46.266;20.062;2023-03-23T04:28:30;28.08;;;17.45;;
1759;SDS011;877;46.266;20.062;2023-03-23T04:31:00;29.35;;;17.85;;
1759;SDS011;877;46.266;20.062;2023-03-23T04:33:28;30.90;;;19.33;;
1759;SDS011;877;46.266;20.062;2023-03-23T04:35:56;32.60;;;18.45;;
1759;SDS011;877;46.266;20.062;2023-03-23T04:38:34;32.90;;;20.48;;
1759;SDS011;877;46.266;20.062;2023-03-23T04:41:02;29.08;;;18.88;;
1759;SDS011;877;46.266;20.062;2023-03-23T04:43:28;37.75;;;20.52;;
1759;SDS011;877;46.266;20.062;2023-03-23T04:45:58;29.23;;;17.70;;
1759;SDS011;877;46.266;20.062;2023-03-23T04:48:32;32.38;;;19.20;;
1759;SDS011;877;46.266;20.062;2023-03-23T04:51:12;31.15;;;17.85;;
1759;SDS011;877;46.266;20.062;2023-03-23T04:53:41;28.95;;;19.45;;
1759;SDS011;877;46.266;20.062;2023-03-23T04:56:09;29.38;;;17.48;;
1759;SDS011;877;46.266;20.062;2023-03-23T04:58:43;28.77;;;17.90;;
1759;SDS011;877;46.266;20.062;2023-03-23T05:01:12;28.70;;;17.20;;
1759;SDS011;877;46.266;20.062;2023-03-23T05:03:50;24.63;;;18.02;;
1759;SDS011;877;46.266;20.062;2023-03-23T05:06:16;32.67;;;17.63;;
1759;SDS011;877;46.266;20.062;2023-03-23T05:08:46;23.70;;;16.35;;
1759;SDS011;877;46.266;20.062;2023-03-23T05:13:42;32.23;;;20.00;;
1759;SDS011;877;46.266;20.062;2023-03-23T05:16:10;28.08;;;18.02;;
1759;SDS011;877;46.266;20.062;2023-03-23T05:18:41;29.42;;;17.33;;
1759;SDS011;877;46.266;20.062;2023-03-23T05:21:08;31.33;;;17.77;;
1759;SDS011;877;46.266;20.062;2023-03-23T05:23:34;26.60;;;17.47;;
1759;SDS011;877;46.266;20.062;2023-03-23T05:26:01;34.85;;;18.88;;
1759;SDS011;877;46.266;20.062;2023-03-23T05:28:38;29.90;;;18.35;;
1759;SDS011;877;46.266;20.062;2023-03-23T05:31:15;29.55;;;18.27;;
1759;SDS011;877;46.266;20.062;2023-03-23T05:33:41;28.30;;;18.40;;
1759;SDS011;877;46.266;20.062;2023-03-23T05:41:17;30.80;;;19.48;;
1759;SDS011;877;46.266;20.062;2023-03-23T05:43:44;36.50;;;21.08;;
1759;SDS011;877;46.266;20.062;2023-03-23T05:46:10;35.25;;;18.50;;
1759;SDS011;877;46.266;20.062;2023-03-23T05:48:37;29.90;;;18.83;;
1759;SDS011;877;46.266;20.062;2023-03-23T05:51:03;32.90;;;19.90;;
1759;SDS011;877;46.266;20.062;2023-03-23T05:53:31;35.00;;;21.33;;
1759;SDS011;877;46.266;20.062;2023-03-23T05:55:59;27.52;;;18.63;;
1759;SDS011;877;46.266;20.062;2023-03-23T06:01:22;35.10;;;21.63;;
1759;SDS011;877;46.266;20.062;2023-03-23T06:03:49;35.80;;;20.97;;
1759;SDS011;877;46.266;20.062;2023-03-23T06:06:21;32.57;;;20.27;;
1759;SDS011;877;46.266;20.062;2023-03-23T06:08:49;36.83;;;20.13;;
1759;SDS011;877;46.266;20.062;2023-03-23T06:11:26;34.93;;;21.60;;
1759;SDS011;877;46.266;20.062;2023-03-23T06:13:53;30.30;;;19.30;;
1759;SDS011;877;46.266;20.062;2023-03-23T06:16:19;31.60;;;19.53;;
1759;SDS011;877;46.266;20.062;2023-03-23T06:18:45;41.63;;;21.77;;
1759;SDS011;877;46.266;20.062;2023-03-23T06:21:13;30.77;;;19.37;;
1759;SDS011;877;46.266;20.062;2023-03-23T06:23:48;38.50;;;23.57;;
1759;SDS011;877;46.266;20.062;2023-03-23T06:31:44;32.50;;;20.20;;
1759;SDS011;877;46.266;20.062;2023-03-23T06:34:13;28.70;;;18.33;;
1759;SDS011;877;46.266;20.062;2023-03-23T06:39:38;34.13;;;20.70;;
1759;SDS011;877;46.266;20.062;2023-03-23T06:47:28;36.17;;;20.37;;
1759;SDS011;877;46.266;20.062;2023-03-23T06:49:57;29.30;;;19.73;;
1759;SDS011;877;46.266;20.062;2023-03-23T06:52:30;30.73;;;19.90;;
1759;SDS011;877;46.266;20.062;2023-03-23T07:00:47;27.00;;;15.90;;
1759;SDS011;877;46.266;20.062;2023-03-23T07:03:14;26.27;;;16.43;;
1759;SDS011;877;46.266;20.062;2023-03-23T07:08:16;25.03;;;17.60;;
1759;SDS011;877;46.266;20.062;2023-03-23T07:16:26;24.53;;;16.57;;
1759;SDS011;877;46.266;20.062;2023-03-23T07:21:47;33.33;;;20.60;;
1759;SDS011;877;46.266;20.062;2023-03-23T07:24:32;26.10;;;17.90;;
1759;SDS011;877;46.266;20.062;2023-03-23T07:29:54;37.23;;;16.73;;
1759;SDS011;877;46.266;20.062;2023-03-23T07:32:35;22.73;;;15.07;;
1759;SDS011;877;46.266;20.062;2023-03-23T07:35:02;23.83;;;15.20;;
1759;SDS011;877;46.266;20.062;2023-03-23T07:37:28;22.37;;;13.90;;
1759;SDS011;877;46.266;20.062;2023-03-23T07:40:05;20.83;;;14.50;;
1759;SDS011;877;46.266;20.062;2023-03-23T07:42:40;20.13;;;13.53;;
1759;SDS011;877;46.266;20.062;2023-03-23T07:50:50;20.70;;;12.40;;
1759;SDS011;877;46.266;20.062;2023-03-23T07:53:28;20.97;;;13.17;;
1759;SDS011;877;46.266;20.062;2023-03-23T07:58:45;20.33;;;13.70;;
1759;SDS011;877;46.266;20.062;2023-03-23T08:01:12;19.33;;;13.10;;
1759;SDS011;877;46.266;20.062;2023-03-23T08:12:02;20.13;;;11.70;;
1759;SDS011;877;46.266;20.062;2023-03-23T08:14:41;16.87;;;11.87;;
1759;SDS011;877;46.266;20.062;2023-03-23T08:17:08;15.00;;;10.17;;
1759;SDS011;877;46.266;20.062;2023-03-23T08:19:35;16.33;;;11.37;;
1759;SDS011;877;46.266;20.062;2023-03-23T08:22:03;21.67;;;11.63;;
1759;SDS011;877;46.266;20.062;2023-03-23T08:24:30;16.63;;;11.30;;
1759;SDS011;877;46.266;20.062;2023-03-23T08:26:59;17.90;;;11.13;;
1759;SDS011;877;46.266;20.062;2023-03-23T08:29:38;15.20;;;10.60;;
1759;SDS011;877;46.266;20.062;2023-03-23T08:32:11;14.50;;;9.70;;
1759;SDS011;877;46.266;20.062;2023-03-23T08:34:45;16.53;;;10.40;;
1759;SDS011;877;46.266;20.062;2023-03-23T08:37:13;17.87;;;11.13;;
1759;SDS011;877;46.266;20.062;2023-03-23T08:42:34;13.43;;;9.77;;
1759;SDS011;877;46.266;20.062;2023-03-23T08:45:10;14.43;;;10.57;;
1759;SDS011;877;46.266;20.062;2023-03-23T08:47:37;14.10;;;9.73;;
1759;SDS011;877;46.266;20.062;2023-03-23T08:55:29;14.67;;;9.50;;
1759;SDS011;877;46.266;20.062;2023-03-23T09:00:46;14.30;;;9.30;;
1759;SDS011;877;46.266;20.062;2023-03-23T09:06:15;12.40;;;8.17;;
1759;SDS011;877;46.266;20.062;2023-03-23T09:19:29;9.50;;;6.03;;
1759;SDS011;877;46.266;20.062;2023-03-23T09:21:55;10.63;;;6.73;;
1759;SDS011;877;46.266;20.062;2023-03-23T09:27:13;8.13;;;4.77;;
1759;SDS011;877;46.266;20.062;2023-03-23T09:49:36;6.60;;;4.57;;
1759;SDS011;877;46.266;20.062;2023-03-23T09:54:57;9.37;;;4.77;;
1759;SDS011;877;46.266;20.062;2023-03-23T09:57:33;6.90;;;4.73;;
1759;SDS011;877;46.266;20.062;2023-03-23T10:00:12;6.10;;;4.37;;
1759;SDS011;877;46.266;20.062;2023-03-23T10:02:49;9.27;;;5.50;;
1759;SDS011;877;46.266;20.062;2023-03-23T10:05:37;5.10;;;3.80;;
1759;SDS011;877;46.266;20.062;2023-03-23T10:13:27;7.60;;;4.97;;
1759;SDS011;877;46.266;20.062;2023-03-23T10:21:27;6.33;;;3.87;;
1759;SDS011;877;46.266;20.062;2023-03-23T10:37:26;6.23;;;4.43;;
1759;SDS011;877;46.266;20.062;2023-03-23T10:39:54;6.50;;;4.60;;
1759;SDS011;877;46.266;20.062;2023-03-23T10:42:26;5.43;;;3.63;;
1759;SDS011;877;46.266;20.062;2023-03-23T10:50:55;5.70;;;3.80;;
1759;SDS011;877;46.266;20.062;2023-03-23T10:53:29;7.30;;;4.00;;
1759;SDS011;877;46.266;20.062;2023-03-23T10:55:58;5.90;;;4.03;;
1759;SDS011;877;46.266;20.062;2023-03-23T11:01:31;6.40;;;3.90;;
1759;SDS011;877;46.266;20.062;2023-03-23T11:03:58;7.77;;;3.77;;
1759;SDS011;877;46.266;20.062;2023-03-23T11:06:32;7.00;;;5.00;;
1759;SDS011;877;46.266;20.062;2023-03-23T11:12:15;6.63;;;4.43;;
1759;SDS011;877;46.266;20.062;2023-03-23T11:14:48;6.53;;;4.10;;
1759;SDS011;877;46.266;20.062;2023-03-23T11:17:21;5.50;;;4.10;;
1759;SDS011;877;46.266;20.062;2023-03-23T11:19:50;5.53;;;3.90;;
1759;SDS011;877;46.266;20.062;2023-03-23T11:25:03;8.00;;;4.27;;
1759;SDS011;877;46.266;20.062;2023-03-23T11:35:51;4.40;;;3.70;;
1759;SDS011;877;46.266;20.062;2023-03-23T11:38:30;5.50;;;3.80;;
1759;SDS011;877;46.266;20.062;2023-03-23T11:49:41;5.80;;;3.70;;
1759;SDS011;877;46.266;20.062;2023-03-23T11:54:46;10.27;;;3.60;;
1759;SDS011;877;46.266;20.062;2023-03-23T12:00:01;5.43;;;3.40;;
1759;SDS011;877;46.266;20.062;2023-03-23T12:39:55;5.00;;;3.90;;
1759;SDS011;877;46.266;20.062;2023-03-23T13:05:06;5.60;;;4.27;;
1759;SDS011;877;46.266;20.062;2023-03-23T13:07:37;6.03;;;4.23;;
1759;SDS011;877;46.266;20.062;2023-03-23T13:21:27;6.27;;;4.90;;
1759;SDS011;877;46.266;20.062;2023-03-23T13:23:59;5.50;;;4.53;;
1759;SDS011;877;46.266;20.062;2023-03-23T13:26:28;7.53;;;4.70;;
1759;SDS011;877;46.266;20.062;2023-03-23T13:31:52;9.73;;;5.13;;
1759;SDS011;877;46.266;20.062;2023-03-23T13:34:41;7.87;;;4.73;;
1759;SDS011;877;46.266;20.062;2023-03-23T13:45:24;7.27;;;4.80;;
1759;SDS011;877;46.266;20.062;2023-03-23T13:48:16;5.80;;;4.40;;
1759;SDS011;877;46.266;20.062;2023-03-23T13:53:50;6.60;;;5.20;;
1759;SDS011;877;46.266;20.062;2023-03-23T13:58:51;6.07;;;4.13;;
1759;SDS011;877;46.266;20.062;2023-03-23T14:01:42;8.83;;;4.53;;
1759;SDS011;877;46.266;20.062;2023-03-23T14:04:30;6.37;;;4.23;;
1759;SDS011;877;46.266;20.062;2023-03-23T14:07:24;7.50;;;4.87;;
1759;SDS011;877;46.266;20.062;2023-03-23T14:09:56;6.67;;;4.73;;
1759;SDS011;877;46.266;20.062;2023-03-23T14:12:28;8.73;;;5.00;;
1759;SDS011;877;46.266;20.062;2023-03-23T14:17:41;7.27;;;5.20;;
1759;SDS011;877;46.266;20.062;2023-03-23T14:22:55;6.33;;;5.10;;
1759;SDS011;877;46.266;20.062;2023-03-23T14:25:27;8.60;;;4.77;;
1759;SDS011;877;46.266;20.062;2023-03-23T14:27:57;6.67;;;4.73;;
1759;SDS011;877;46.266;20.062;2023-03-23T14:30:26;9.03;;;6.10;;
1759;SDS011;877;46.266;20.062;2023-03-23T14:35:24;9.13;;;5.17;;
1759;SDS011;877;46.266;20.062;2023-03-23T14:37:54;6.90;;;5.10;;
1759;SDS011;877;46.266;20.062;2023-03-23T14:40:21;6.70;;;5.33;;
1759;SDS011;877;46.266;20.062;2023-03-23T14:42:50;7.93;;;5.67;;
1759;SDS011;877;46.266;20.062;2023-03-23T14:48:22;7.80;;;5.90;;
1759;SDS011;877;46.266;20.062;2023-03-23T14:51:04;7.53;;;5.60;;
1759;SDS011;877;46.266;20.062;2023-03-23T14:53:48;7.17;;;6.10;;
1759;SDS011;877;46.266;20.062;2023-03-23T14:56:23;9.60;;;5.53;;
1759;SDS011;877;46.266;20.062;2023-03-23T15:01:40;8.07;;;6.30;;
1759;SDS011;877;46.266;20.062;2023-03-23T15:04:12;9.33;;;6.40;;
1759;SDS011;877;46.266;20.062;2023-03-23T15:06:44;9.93;;;6.30;;
1759;SDS011;877;46.266;20.062;2023-03-23T15:14:44;6.80;;;5.33;;
1759;SDS011;877;46.266;20.062;2023-03-23T15:22:48;12.00;;;6.47;;
1759;SDS011;877;46.266;20.062;2023-03-23T15:30:53;6.97;;;5.50;;
1759;SDS011;877;46.266;20.062;2023-03-23T15:33:22;6.00;;;5.40;;
1759;SDS011;877;46.266;20.062;2023-03-23T15:38:32;12.53;;;6.80;;
1759;SDS011;877;46.266;20.062;2023-03-23T15:44:09;8.67;;;5.50;;
1759;SDS011;877;46.266;20.062;2023-03-23T15:49:41;13.33;;;5.97;;
1759;SDS011;877;46.266;20.062;2023-03-23T15:52:12;9.93;;;5.80;;
1759;SDS011;877;46.266;20.062;2023-03-23T15:57:14;7.47;;;5.03;;
1759;SDS011;877;46.266;20.062;2023-03-23T16:02:31;7.50;;;5.80;;
1759;SDS011;877;46.266;20.062;2023-03-23T16:07:49;6.87;;;5.43;;
1759;SDS011;877;46.266;20.062;2023-03-23T16:15:48;7.07;;;5.57;;
1759;SDS011;877;46.266;20.062;2023-03-23T16:18:31;7.83;;;5.97;;
1759;SDS011;877;46.266;20.062;2023-03-23T16:20:58;9.67;;;5.40;;
1759;SDS011;877;46.266;20.062;2023-03-23T16:23:32;7.90;;;6.50;;
1759;SDS011;877;46.266;20.062;2023-03-23T16:28:44;7.53;;;5.40;;
1759;SDS011;877;46.266;20.062;2023-03-23T16:31:21;6.47;;;5.23;;
1759;SDS011;877;46.266;20.062;2023-03-23T16:33:51;7.37;;;5.33;;
1759;SDS011;877;46.266;20.062;2023-03-23T16:38:55;7.30;;;4.97;;
1759;SDS011;877;46.266;20.062;2023-03-23T16:41:32;7.50;;;5.33;;
1759;SDS011;877;46.266;20.062;2023-03-23T16:49:21;12.90;;;5.70;;
1759;SDS011;877;46.266;20.062;2023-03-23T16:51:51;10.60;;;5.90;;
1759;SDS011;877;46.266;20.062;2023-03-23T16:54:19;8.40;;;5.70;;
1759;SDS011;877;46.266;20.062;2023-03-23T16:56:46;8.50;;;5.50;;
1759;SDS011;877;46.266;20.062;2023-03-23T16:59:20;7.53;;;5.87;;
1759;SDS011;877;46.266;20.062;2023-03-23T17:01:46;8.67;;;6.00;;
1759;SDS011;877;46.266;20.062;2023-03-23T17:06:43;8.77;;;5.97;;
1759;SDS011;877;46.266;20.062;2023-03-23T17:09:10;8.57;;;5.80;;
1759;SDS011;877;46.266;20.062;2023-03-23T17:11:36;6.13;;;5.53;;
1759;SDS011;877;46.266;20.062;2023-03-23T17:16:36;9.50;;;6.57;;
1759;SDS011;877;46.266;20.062;2023-03-23T17:19:04;8.93;;;6.33;;
1759;SDS011;877;46.266;20.062;2023-03-23T17:24:14;10.47;;;7.27;;
1759;SDS011;877;46.266;20.062;2023-03-23T17:26:44;13.37;;;7.40;;
1759;SDS011;877;46.266;20.062;2023-03-23T17:29:11;17.53;;;8.03;;
1759;SDS011;877;46.266;20.062;2023-03-23T17:31:38;12.43;;;7.83;;
1759;SDS011;877;46.266;20.062;2023-03-23T17:34:19;14.77;;;6.87;;
1759;SDS011;877;46.266;20.062;2023-03-23T17:36:53;11.40;;;7.97;;
1759;SDS011;877;46.266;20.062;2023-03-23T17:39:25;16.80;;;9.13;;
1759;SDS011;877;46.266;20.062;2023-03-23T17:42:06;13.03;;;9.37;;
1759;SDS011;877;46.266;20.062;2023-03-23T17:44:39;21.30;;;10.03;;
1759;SDS011;877;46.266;20.062;2023-03-23T17:47:07;11.70;;;9.20;;
1759;SDS011;877;46.266;20.062;2023-03-23T17:49:40;11.13;;;9.00;;
1759;SDS011;877;46.266;20.062;2023-03-23T17:55:20;15.00;;;9.17;;
1759;SDS011;877;46.266;20.062;2023-03-23T18:00:20;16.27;;;12.17;;
1759;SDS011;877;46.266;20.062;2023-03-23T18:03:02;13.30;;;9.80;;
1759;SDS011;877;46.266;20.062;2023-03-23T18:05:29;10.90;;;8.50;;
1759;SDS011;877;46.266;20.062;2023-03-23T18:13:10;14.90;;;8.23;;
1759;SDS011;877;46.266;20.062;2023-03-23T18:15:42;14.33;;;8.57;;
1759;SDS011;877;46.266;20.062;2023-03-23T18:18:08;13.57;;;8.90;;
1759;SDS011;877;46.266;20.062;2023-03-23T18:20:43;12.30;;;7.80;;
1759;SDS011;877;46.266;20.062;2023-03-23T18:23:09;10.57;;;8.67;;
1759;SDS011;877;46.266;20.062;2023-03-23T18:28:22;15.90;;;9.67;;
1759;SDS011;877;46.266;20.062;2023-03-23T18:31:05;11.10;;;8.60;;
1759;SDS011;877;46.266;20.062;2023-03-23T18:33:44;12.30;;;8.83;;
1759;SDS011;877;46.266;20.062;2023-03-23T18:39:01;17.30;;;10.80;;
1759;SDS011;877;46.266;20.062;2023-03-23T18:41:34;14.73;;;11.67;;
1759;SDS011;877;46.266;20.062;2023-03-23T18:44:02;21.10;;;14.00;;
1759;SDS011;877;46.266;20.062;2023-03-23T18:46:28;16.40;;;13.47;;
1759;SDS011;877;46.266;20.062;2023-03-23T18:51:30;15.23;;;12.30;;
1759;SDS011;877;46.266;20.062;2023-03-23T18:54:05;14.50;;;11.03;;
1759;SDS011;877;46.266;20.062;2023-03-23T18:56:32;14.23;;;10.30;;
1759;SDS011;877;46.266;20.062;2023-03-23T18:59:00;12.83;;;9.83;;
1759;SDS011;877;46.266;20.062;2023-03-23T19:01:26;12.53;;;9.20;;
1759;SDS011;877;46.266;20.062;2023-03-23T19:04:07;15.57;;;10.97;;
1759;SDS011;877;46.266;20.062;2023-03-23T19:06:34;15.37;;;9.53;;
1759;SDS011;877;46.266;20.062;2023-03-23T19:09:15;14.87;;;11.10;;
1759;SDS011;877;46.266;20.062;2023-03-23T19:14:22;20.20;;;12.00;;
1759;SDS011;877;46.266;20.062;2023-03-23T19:16:54;20.43;;;11.90;;
1759;SDS011;877;46.266;20.062;2023-03-23T19:21:51;18.73;;;12.50;;
1759;SDS011;877;46.266;20.062;2023-03-23T19:24:19;21.57;;;13.43;;
1759;SDS011;877;46.266;20.062;2023-03-23T19:26:47;19.50;;;13.30;;
1759;SDS011;877;46.266;20.062;2023-03-23T19:29:23;20.70;;;13.50;;
1759;SDS011;877;46.266;20.062;2023-03-23T19:31:50;18.90;;;12.93;;
1759;SDS011;877;46.266;20.062;2023-03-23T19:34:18;18.50;;;13.10;;
1759;SDS011;877;46.266;20.062;2023-03-23T19:36:47;17.53;;;13.20;;
1759;SDS011;877;46.266;20.062;2023-03-23T19:39:16;19.55;;;13.70;;
1759;SDS011;877;46.266;20.062;2023-03-23T19:44:12;19.90;;;13.53;;
1759;SDS011;877;46.266;20.062;2023-03-23T19:46:39;20.37;;;14.80;;
1759;SDS011;877;46.266;20.062;2023-03-23T19:51:34;23.87;;;14.93;;
1759;SDS011;877;46.266;20.062;2023-03-23T19:54:07;21.60;;;13.90;;
1759;SDS011;877;46.266;20.062;2023-03-23T19:56:33;21.33;;;15.77;;
1759;SDS011;877;46.266;20.062;2023-03-23T19:59:00;24.80;;;15.73;;
1759;SDS011;877;46.266;20.062;2023-03-23T20:01:27;21.60;;;15.67;;
1759;SDS011;877;46.266;20.062;2023-03-23T20:03:54;19.97;;;15.97;;
1759;SDS011;877;46.266;20.062;2023-03-23T20:06:27;21.23;;;15.70;;
1759;SDS011;877;46.266;20.062;2023-03-23T20:08:53;22.53;;;15.57;;
1759;SDS011;877;46.266;20.062;2023-03-23T20:11:19;23.43;;;16.67;;
1759;SDS011;877;46.266;20.062;2023-03-23T20:16:19;23.83;;;15.80;;
1759;SDS011;877;46.266;20.062;2023-03-23T20:18:45;23.10;;;15.70;;
1759;SDS011;877;46.266;20.062;2023-03-23T20:21:13;23.10;;;16.00;;
1759;SDS011;877;46.266;20.062;2023-03-23T20:23:40;18.30;;;12.60;;
1759;SDS011;877;46.266;20.062;2023-03-23T20:28:45;22.37;;;13.27;;
1759;SDS011;877;46.266;20.062;2023-03-23T20:31:22;16.07;;;12.00;;
1759;SDS011;877;46.266;20.062;2023-03-23T20:34:00;17.43;;;11.97;;
1759;SDS011;877;46.266;20.062;2023-03-23T20:36:31;17.80;;;12.10;;
1759;SDS011;877;46.266;20.062;2023-03-23T20:39:08;15.70;;;11.07;;
1759;SDS011;877;46.266;20.062;2023-03-23T20:44:08;18.07;;;12.90;;
1759;SDS011;877;46.266;20.062;2023-03-23T20:46:37;20.57;;;13.20;;
1759;SDS011;877;46.266;20.062;2023-03-23T20:49:10;20.90;;;13.27;;
1759;SDS011;877;46.266;20.062;2023-03-23T20:51:43;17.37;;;11.70;;
1759;SDS011;877;46.266;20.062;2023-03-23T20:57:01;30.30;;;18.47;;
1759;SDS011;877;46.266;20.062;2023-03-23T21:01:58;33.23;;;18.57;;
1759;SDS011;877;46.266;20.062;2023-03-23T21:04:24;26.83;;;17.97;;
1759;SDS011;877;46.266;20.062;2023-03-23T21:07:03;28.53;;;16.90;;
1759;SDS011;877;46.266;20.062;2023-03-23T21:12:47;26.23;;;17.87;;
1759;SDS011;877;46.266;20.062;2023-03-23T21:18:13;24.90;;;17.03;;
1759;SDS011;877;46.266;20.062;2023-03-23T21:20:46;29.97;;;17.60;;
1759;SDS011;877;46.266;20.062;2023-03-23T21:23:15;29.30;;;17.80;;
1759;SDS011;877;46.266;20.062;2023-03-23T21:28:47;20.67;;;14.60;;
1759;SDS011;877;46.266;20.062;2023-03-23T21:31:20;20.67;;;13.57;;
1759;SDS011;877;46.266;20.062;2023-03-23T21:33:57;21.93;;;15.77;;
1759;SDS011;877;46.266;20.062;2023-03-23T21:36:26;20.47;;;16.30;;
1759;SDS011;877;46.266;20.062;2023-03-23T21:38:53;31.73;;;17.97;;
1759;SDS011;877;46.266;20.062;2023-03-23T21:41:29;26.33;;;18.33;;
1759;SDS011;877;46.266;20.062;2023-03-23T21:44:00;30.30;;;19.53;;
1759;SDS011;877;46.266;20.062;2023-03-23T21:46:40;31.10;;;21.90;;
1759;SDS011;877;46.266;20.062;2023-03-23T21:49:19;27.80;;;19.23;;
1759;SDS011;877;46.266;20.062;2023-03-23T21:51:46;25.57;;;17.27;;
1759;SDS011;877;46.266;20.062;2023-03-23T21:54:14;25.57;;;16.63;;
1759;SDS011;877;46.266;20.062;2023-03-23T21:56:40;33.87;;;16.27;;
1759;SDS011;877;46.266;20.062;2023-03-23T21:59:13;25.00;;;14.70;;
1759;SDS011;877;46.266;20.062;2023-03-23T22:01:44;23.40;;;17.27;;
1759;SDS011;877;46.266;20.062;2023-03-23T22:06:43;26.57;;;16.13;;
1759;SDS011;877;46.266;20.062;2023-03-23T22:09:10;19.40;;;14.57;;
1759;SDS011;877;46.266;20.062;2023-03-23T22:14:21;25.40;;;17.00;;
1759;SDS011;877;46.266;20.062;2023-03-23T22:16:48;27.93;;;17.30;;
1759;SDS011;877;46.266;20.062;2023-03-23T22:19:15;29.87;;;18.37;;
1759;SDS011;877;46.266;20.062;2023-03-23T22:21:49;26.73;;;18.00;;
1759;SDS011;877;46.266;20.062;2023-03-23T22:24:20;30.50;;;19.77;;
1759;SDS011;877;46.266;20.062;2023-03-23T22:32:25;26.67;;;16.80;;
1759;SDS011;877;46.266;20.062;2023-03-23T22:34:58;24.63;;;16.80;;
1759;SDS011;877;46.266;20.062;2023-03-23T22:40:26;23.83;;;17.83;;
1759;SDS011;877;46.266;20.062;2023-03-23T22:43:03;20.67;;;16.33;;
1759;SDS011;877;46.266;20.062;2023-03-23T22:45:43;25.43;;;16.40;;
1759;SDS011;877;46.266;20.062;2023-03-23T22:48:22;28.33;;;17.47;;
1759;SDS011;877;46.266;20.062;2023-03-23T22:50:50;29.80;;;16.40;;
1759;SDS011;877;46.266;20.062;2023-03-23T22:53:19;28.03;;;17.63;;
1759;SDS011;877;46.266;20.062;2023-03-23T22:55:56;20.77;;;16.10;;
1759;SDS011;877;46.266;20.062;2023-03-23T22:58:37;25.23;;;17.90;;
1759;SDS011;877;46.266;20.062;2023-03-23T23:06:30;29.00;;;19.27;;
1759;SDS011;877;46.266;20.062;2023-03-23T23:11:26;28.23;;;18.80;;
1759;SDS011;877;46.266;20.062;2023-03-23T23:17:01;25.70;;;19.57;;
1759;SDS011;877;46.266;20.062;2023-03-23T23:19:34;27.97;;;19.63;;
1759;SDS011;877;46.266;20.062;2023-03-23T23:24:53;24.90;;;19.50;;
1759;SDS011;877;46.266;20.062;2023-03-23T23:27:29;28.30;;;19.70;;